Flight NumberIRM130 Date14.02.2018
Departure AirportOIIE Arrival AirportEKCH
Departure Time7.32Arrival Time12.12
Pilot In CommandMohammadSadegh Ghanaat Block Time4.70 Hours
Pilot Rating95 % AircraftEP-MME [ A340-600 ]


Distance1,985.00 Nm. Passengers308
Fuel Used41,069 Kg. Cargo43220 Kg
Expense Details Income Details
Fuel Cost36,004 v$Ticket Sales72,380 v$
Pilot Salary3,481 v$ Cargo income59,710.00 v$
Crew Salary1,540 v$ Bonus19,339 v$
Gross Profit112,554 v$ ( 112,554 v$ )

Client Versionv2.1.0 Max Simrate1
Flight Critique Pilot CommentsEKCH 141050Z 14007KT 9000 SKC 03/00 Q1021 NOSIG

[ Back ]
FSA VA Integration Pack
Copyright © 2010 FSAirlines.net. Version : 0.1.1